Time;durP1;ratioP1;P1;durP2;ratioP2;P2;SDS_P1;SDS_P2;PMS_P1;PMS_P2;Temp;Humidity;BMP_temperature;BMP_pressure;BME280_temperature;BME280_humidity;BME280_pressure;Samples;Min_cycle;Max_cycle;Signal;HPM_P1;HPM_P2
2022/09/17 00:00:24;;;;;;;0.87;0.80;;;;;;;11.72;98.17;95801.59;5037077;28;20620;-73
2022/09/17 00:02:54;;;;;;;1.60;1.03;;;;;;;11.80;98.52;95796.13;5035340;28;20221;-73
2022/09/17 00:05:21;;;;;;;4.77;1.40;;;;;;;11.56;97.96;95801.91;5036493;28;20220;-73
2022/09/17 00:07:48;;;;;;;1.43;1.00;;;;;;;11.63;98.57;95810.66;5036310;28;20221;-73
2022/09/17 00:10:14;;;;;;;3.27;1.27;;;;;;;11.57;98.92;95806.97;5036272;28;20205;-73
2022/09/17 00:12:41;;;;;;;2.80;1.30;;;;;;;11.55;99.10;95801.06;5035426;28;20201;-73
2022/09/17 00:15:09;;;;;;;2.53;1.20;;;;;;;11.73;99.01;95800.59;5036766;28;20212;-73
2022/09/17 00:17:35;;;;;;;2.57;1.60;;;;;;;11.60;99.92;95806.59;5035775;28;20217;-73
2022/09/17 00:20:08;;;;;;;4.60;1.30;;;;;;;11.62;99.53;95803.75;5036831;28;20204;-73
2022/09/17 00:22:34;;;;;;;2.97;1.30;;;;;;;11.63;99.04;95797.47;5035782;28;20216;-73
2022/09/17 00:25:01;;;;;;;4.43;2.43;;;;;;;11.65;99.50;95803.38;5036051;28;20224;-73
2022/09/17 00:27:27;;;;;;;1.33;1.23;;;;;;;11.52;100.00;95816.50;5036305;28;20209;-73
2022/09/17 00:29:54;;;;;;;2.27;1.60;;;;;;;11.50;100.00;95817.69;5036549;28;20217;-73
2022/09/17 00:32:20;;;;;;;1.53;1.30;;;;;;;11.47;99.86;95820.66;5035915;28;20220;-73
2022/09/17 00:34:48;;;;;;;3.43;1.57;;;;;;;11.51;99.98;95808.75;5036057;28;20208;-73
2022/09/17 00:37:15;;;;;;;8.97;3.83;;;;;;;11.53;100.00;95820.75;5036118;28;20287;-73
2022/09/17 00:39:42;;;;;;;1.73;1.20;;;;;;;11.25;100.00;95822.56;5036230;28;20228;-73
2022/09/17 00:42:09;;;;;;;2.33;1.20;;;;;;;11.28;99.73;95819.53;5032586;28;20201;-72
2022/09/17 00:44:44;;;;;;;1.07;0.83;;;;;;;11.44;97.35;95815.78;5035328;28;20324;-73
2022/09/17 00:47:20;;;;;;;3.33;1.40;;;;;;;11.46;98.87;95819.88;5036720;28;20236;-73
2022/09/17 00:49:49;;;;;;;1.50;1.10;;;;;;;11.39;98.83;95824.28;5035715;28;20212;-73
2022/09/17 00:52:20;;;;;;;1.60;1.07;;;;;;;11.36;96.71;95827.28;5035634;28;20212;-72
2022/09/17 00:54:52;;;;;;;2.63;0.90;;;;;;;11.23;95.01;95837.75;5035988;28;21097;-73
2022/09/17 00:57:19;;;;;;;3.97;1.33;;;;;;;11.21;95.47;95836.28;5035848;28;20236;-73
2022/09/17 00:59:45;;;;;;;2.07;1.20;;;;;;;11.17;95.39;95838.50;5035681;28;20205;-72
2022/09/17 01:02:12;;;;;;;3.00;1.10;;;;;;;11.20;95.99;95840.75;5036447;28;20224;-73
2022/09/17 01:04:39;;;;;;;1.60;1.17;;;;;;;11.16;96.39;95839.53;5035429;28;20221;-73
2022/09/17 01:07:12;;;;;;;2.00;1.30;;;;;;;11.41;96.24;95840.72;5035610;28;20208;-73
2022/09/17 01:09:48;;;;;;;1.40;1.27;;;;;;;11.41;95.70;95837.28;5036627;28;20221;-73
2022/09/17 01:12:35;;;;;;;1.33;0.90;;;;;;;11.47;95.50;95828.56;5035346;28;20236;-73
2022/09/17 01:15:14;;;;;;;2.23;1.17;;;;;;;11.54;95.44;95830.28;5025589;28;20193;-73
2022/09/17 01:17:45;;;;;;;1.57;1.10;;;;;;;11.29;96.38;95839.63;5035291;28;20221;-73
2022/09/17 01:20:44;;;;;;;1.40;1.23;;;;;;;11.46;95.32;95840.97;5036270;28;20205;-73
2022/09/17 01:23:32;;;;;;;1.10;0.90;;;;;;;11.40;95.59;95838.28;4990560;28;20213;-73
2022/09/17 01:26:23;;;;;;;2.53;1.60;;;;;;;11.41;95.58;95838.09;5035997;28;20717;-73
2022/09/17 01:29:00;;;;;;;1.10;1.00;;;;;;;11.42;95.91;95839.72;5036269;28;20235;-73
2022/09/17 01:31:34;;;;;;;1.03;0.93;;;;;;;11.34;95.36;95850.41;5039916;28;20212;-73
2022/09/17 01:34:13;;;;;;;1.63;1.03;;;;;;;11.37;95.12;95852.66;5038861;28;20204;-73
2022/09/17 01:36:55;;;;;;;1.47;0.97;;;;;;;11.34;95.40;95850.41;5039555;28;20220;-73
2022/09/17 01:39:32;;;;;;;2.87;1.10;;;;;;;11.31;95.75;95853.41;5040103;28;20231;-73
2022/09/17 01:42:08;;;;;;;0.70;0.70;;;;;;;11.26;95.83;95855.81;5035809;28;20197;-73
2022/09/17 01:44:41;;;;;;;3.67;1.97;;;;;;;11.28;97.08;95859.09;5038966;28;20319;-73
2022/09/17 01:47:14;;;;;;;1.43;0.87;;;;;;;11.22;97.65;95867.75;5039715;28;20212;-73
2022/09/17 01:49:43;;;;;;;1.63;1.10;;;;;;;11.07;97.38;95866.19;5039192;28;20233;-73
2022/09/17 01:52:13;;;;;;;3.13;1.07;;;;;;;11.27;97.05;95852.16;5038411;28;20205;-73
2022/09/17 01:54:46;;;;;;;4.10;1.20;;;;;;;11.24;96.82;95851.72;5038949;28;20737;-73
2022/09/17 01:57:17;;;;;;;1.23;1.10;;;;;;;11.15;96.65;95861.63;5039491;28;20203;-73
2022/09/17 01:59:48;;;;;;;1.53;1.00;;;;;;;11.30;96.95;95861.53;5038307;28;20201;-73
2022/09/17 02:02:23;;;;;;;1.00;0.90;;;;;;;11.24;96.60;95857.84;5038618;28;20205;-73
2022/09/17 02:04:54;;;;;;;3.50;1.17;;;;;;;11.21;96.17;95860.84;5038073;28;20235;-73
2022/09/17 02:07:22;;;;;;;0.93;0.80;;;;;;;11.14;96.18;95856.53;5038913;28;20209;-73
2022/09/17 02:09:55;;;;;;;1.13;1.00;;;;;;;11.21;96.58;95849.47;5039134;28;20212;-73
2022/09/17 02:12:28;;;;;;;3.70;1.80;;;;;;;11.07;97.94;95851.19;5038077;28;20276;-73
2022/09/17 02:14:58;;;;;;;4.90;1.30;;;;;;;11.03;97.68;95844.66;5038342;28;20254;-73
2022/09/17 02:17:31;;;;;;;2.47;1.40;;;;;;;11.02;96.28;95844.84;5038550;28;20201;-73
2022/09/17 02:19:59;;;;;;;1.17;1.00;;;;;;;10.97;96.79;95844.59;5036063;28;20232;-73
2022/09/17 02:22:28;;;;;;;2.03;1.20;;;;;;;10.92;96.72;95847.00;5038286;28;20721;-72
2022/09/17 02:25:04;;;;;;;5.00;1.20;;;;;;;10.95;96.23;95842.16;5038455;28;20225;-73
2022/09/17 02:27:40;;;;;;;3.27;1.20;;;;;;;10.95;96.27;95846.63;5039100;28;20193;-73
2022/09/17 02:30:07;;;;;;;1.10;1.00;;;;;;;10.91;97.43;95840.09;5037712;28;20201;-73
2022/09/17 02:32:35;;;;;;;8.70;1.87;;;;;;;10.90;96.55;95829.75;5038024;28;20197;-73
2022/09/17 02:35:01;;;;;;;1.87;1.20;;;;;;;10.84;96.29;95825.22;5037922;28;20204;-73
2022/09/17 02:37:28;;;;;;;1.13;0.77;;;;;;;10.80;96.79;95826.59;5038744;28;20197;-73
2022/09/17 02:39:55;;;;;;;1.57;1.23;;;;;;;10.82;97.48;95822.78;5037899;28;20252;-73
2022/09/17 02:42:28;;;;;;;1.00;0.90;;;;;;;10.98;96.44;95823.34;5034528;28;20197;-73
2022/09/17 02:45:03;;;;;;;2.30;1.30;;;;;;;10.94;96.47;95816.78;5038251;28;20229;-73
2022/09/17 02:48:12;;;;;;;2.00;0.97;;;;;;;10.90;96.21;95827.91;5038481;28;20204;-73
2022/09/17 02:51:04;;;;;;;1.63;0.97;;;;;;;10.95;96.12;95825.53;5034377;28;20208;-73
2022/09/17 02:53:38;;;;;;;2.80;1.03;;;;;;;10.84;96.40;95826.03;5037860;28;20208;-73
2022/09/17 02:56:14;;;;;;;1.80;0.90;;;;;;;10.84;96.61;95828.66;5037851;28;20265;-73
2022/09/17 02:58:47;;;;;;;1.43;0.83;;;;;;;10.76;96.73;95830.63;5037752;28;20220;-73
2022/09/17 03:01:19;;;;;;;2.90;0.87;;;;;;;10.60;97.17;95823.78;5038342;28;20197;-73
2022/09/17 03:03:50;;;;;;;4.63;0.97;;;;;;;10.74;96.92;95820.25;5037305;28;20212;-73
2022/09/17 03:06:17;;;;;;;12.13;6.33;;;;;;;10.70;96.25;95820.81;5037609;28;20696;-73
2022/09/17 03:08:46;;;;;;;0.63;0.63;;;;;;;10.62;96.48;95816.47;5037794;28;20279;-73
2022/09/17 03:11:12;;;;;;;0.87;0.83;;;;;;;10.58;97.29;95817.06;5037881;28;21014;-73
2022/09/17 03:13:39;;;;;;;2.13;0.87;;;;;;;10.61;96.97;95814.84;5037105;28;20201;-73
2022/09/17 03:16:06;;;;;;;1.03;0.90;;;;;;;10.60;97.80;95810.59;5037357;28;20198;-73
2022/09/17 03:18:33;;;;;;;2.23;1.20;;;;;;;10.62;98.02;95818.31;5037901;28;20221;-73
2022/09/17 03:21:01;;;;;;;5.43;1.33;;;;;;;10.74;96.93;95822.06;5037792;28;20198;-72
2022/09/17 03:23:28;;;;;;;3.80;1.30;;;;;;;10.69;96.82;95808.63;5037376;28;20981;-72
2022/09/17 03:25:55;;;;;;;2.73;1.00;;;;;;;10.64;96.91;95805.75;5037992;28;20230;-71
2022/09/17 03:28:21;;;;;;;1.40;0.90;;;;;;;10.69;97.11;95806.84;5038348;28;20252;-72
2022/09/17 03:30:47;;;;;;;3.43;1.47;;;;;;;10.77;96.59;95817.25;5037482;28;20220;-72
2022/09/17 03:33:14;;;;;;;3.77;1.03;;;;;;;10.78;96.25;95821.53;5038227;28;20212;-71
2022/09/17 03:35:43;;;;;;;2.63;1.57;;;;;;;10.87;96.35;95822.19;5037681;28;20688;-72
2022/09/17 03:38:10;;;;;;;1.47;1.00;;;;;;;10.81;96.74;95822.97;5038247;28;20224;-72
2022/09/17 03:40:37;;;;;;;2.73;1.20;;;;;;;10.78;96.96;95829.44;5037336;28;20201;-72
2022/09/17 03:43:04;;;;;;;3.20;1.20;;;;;;;10.77;97.41;95826.94;5034708;28;20197;-72
2022/09/17 03:45:31;;;;;;;3.77;1.07;;;;;;;10.77;96.89;95817.25;5037708;28;20804;-72
2022/09/17 03:47:57;;;;;;;2.10;0.90;;;;;;;10.54;97.18;95819.25;5036916;28;20225;-72
2022/09/17 03:50:24;;;;;;;4.93;1.30;;;;;;;10.55;97.64;95823.50;5037687;28;20210;-72
2022/09/17 03:52:51;;;;;;;2.00;1.27;;;;;;;10.51;98.35;95824.91;5035552;28;20209;-71
2022/09/17 03:55:18;;;;;;;2.83;1.40;;;;;;;10.70;98.52;95820.81;5037233;28;20205;-72
2022/09/17 03:57:45;;;;;;;1.90;1.40;;;;;;;10.54;98.63;95826.34;5036740;28;20228;-71
2022/09/17 04:00:14;;;;;;;2.37;1.40;;;;;;;10.63;98.81;95814.69;5038005;28;20212;-72
2022/09/17 04:02:40;;;;;;;7.07;1.30;;;;;;;10.64;98.71;95818.91;5035560;28;20205;-72
2022/09/17 04:05:09;;;;;;;1.67;1.40;;;;;;;10.71;98.75;95833.00;5037407;28;20201;-72
2022/09/17 04:07:35;;;;;;;1.60;1.30;;;;;;;10.55;99.26;95836.69;5036527;28;21357;-71
2022/09/17 04:10:03;;;;;;;3.67;1.40;;;;;;;10.53;98.91;95829.97;5037147;28;20920;-72
2022/09/17 04:12:31;;;;;;;4.40;1.30;;;;;;;10.51;99.11;95829.31;5035321;28;20197;-71
2022/09/17 04:14:58;;;;;;;4.97;2.37;;;;;;;10.42;100.00;95833.06;5035818;28;20209;-72
2022/09/17 04:17:24;;;;;;;1.90;1.53;;;;;;;10.47;100.00;95828.06;5036040;28;20208;-72
2022/09/17 04:19:50;;;;;;;1.83;1.50;;;;;;;10.59;100.00;95829.19;5035778;28;20205;-72
2022/09/17 04:22:17;;;;;;;1.70;1.27;;;;;;;10.56;100.00;95819.03;5036346;28;20369;-71
2022/09/17 04:24:43;;;;;;;1.77;1.13;;;;;;;10.43;99.85;95824.19;5036738;28;20216;-71
2022/09/17 04:27:10;;;;;;;5.13;1.77;;;;;;;10.41;100.00;95823.53;5036169;28;20221;-72
2022/09/17 04:29:38;;;;;;;2.30;1.47;;;;;;;10.43;100.00;95824.97;5036759;28;20244;-72
2022/09/17 04:32:04;;;;;;;1.90;1.33;;;;;;;10.38;100.00;95829.19;5037101;28;20571;-71
2022/09/17 04:34:31;;;;;;;3.60;1.50;;;;;;;10.37;100.00;95825.75;5035142;28;20209;-72
2022/09/17 04:36:58;;;;;;;3.10;1.47;;;;;;;10.38;100.00;95823.91;5036606;28;20307;-72
2022/09/17 04:39:24;;;;;;;2.63;1.60;;;;;;;10.39;99.89;95836.09;5036589;28;20705;-72
2022/09/17 04:41:51;;;;;;;5.23;2.23;;;;;;;10.42;100.00;95838.34;5032676;28;20208;-71
2022/09/17 04:44:18;;;;;;;2.93;1.63;;;;;;;10.39;100.00;95833.47;5036148;28;20201;-72
2022/09/17 04:46:45;;;;;;;4.70;1.83;;;;;;;10.44;98.94;95829.25;5036125;28;20228;-72
2022/09/17 04:49:12;;;;;;;2.93;1.60;;;;;;;10.44;98.85;95836.34;5036293;28;20283;-72
2022/09/17 04:51:38;;;;;;;2.10;1.33;;;;;;;10.34;99.79;95838.47;5036803;28;20217;-72
2022/09/17 04:54:05;;;;;;;3.67;1.43;;;;;;;10.41;99.93;95844.59;5035832;28;20217;-72
2022/09/17 04:56:32;;;;;;;11.80;2.17;;;;;;;10.43;100.00;95846.06;5036498;28;20193;-73
2022/09/17 04:58:58;;;;;;;3.60;1.63;;;;;;;10.44;100.00;95841.63;5036693;28;20225;-73
2022/09/17 05:01:25;;;;;;;2.63;1.60;;;;;;;10.57;99.64;95853.09;5035616;28;20201;-72
2022/09/17 05:03:52;;;;;;;2.90;1.77;;;;;;;10.61;98.27;95845.66;5039526;28;20219;-72
2022/09/17 05:06:19;;;;;;;5.30;1.97;;;;;;;10.49;98.96;95849.78;5041258;28;20228;-72
2022/09/17 05:08:45;;;;;;;6.53;1.67;;;;;;;10.44;99.10;95860.88;5040345;28;20236;-72
2022/09/17 05:11:12;;;;;;;2.10;1.50;;;;;;;10.35;99.36;95856.69;5041413;28;20201;-72
2022/09/17 05:13:38;;;;;;;2.57;1.53;;;;;;;10.24;99.99;95856.34;5040767;28;20213;-73
2022/09/17 05:16:05;;;;;;;6.87;1.73;;;;;;;10.29;99.32;95858.47;5040355;28;20570;-72
2022/09/17 05:18:31;;;;;;;6.17;2.37;;;;;;;10.26;99.38;95862.28;5040840;28;20220;-72
2022/09/17 05:20:59;;;;;;;4.77;1.90;;;;;;;10.35;100.00;95864.59;5042133;28;20209;-73
2022/09/17 05:23:26;;;;;;;5.07;1.60;;;;;;;10.15;100.00;95864.56;5039644;28;20211;-72
2022/09/17 05:25:52;;;;;;;5.37;2.67;;;;;;;10.06;100.00;95858.56;5040305;28;20225;-72
2022/09/17 05:28:19;;;;;;;8.03;4.43;;;;;;;10.19;100.00;95869.25;5041238;28;20260;-73
2022/09/17 05:30:45;;;;;;;4.43;2.37;;;;;;;10.07;100.00;95870.72;5040219;28;20209;-73
2022/09/17 05:33:11;;;;;;;6.63;1.80;;;;;;;10.10;100.00;95872.19;5039670;28;20201;-71
2022/09/17 05:35:38;;;;;;;4.97;2.27;;;;;;;10.10;100.00;95872.97;5039952;28;20205;-73
2022/09/17 05:38:07;;;;;;;8.30;1.90;;;;;;;10.17;100.00;95876.53;5040226;28;20225;-73
2022/09/17 05:40:33;;;;;;;12.53;1.97;;;;;;;10.09;100.00;95881.88;5040328;28;20241;-72
2022/09/17 05:43:01;;;;;;;4.53;1.73;;;;;;;10.09;100.00;95878.44;5037117;28;20224;-73
2022/09/17 05:45:28;;;;;;;8.63;2.10;;;;;;;10.16;100.00;95884.63;5040881;28;20201;-73
2022/09/17 05:47:56;;;;;;;8.50;2.03;;;;;;;10.18;100.00;95888.69;5039141;28;20221;-74
2022/09/17 05:50:23;;;;;;;2.33;1.07;;;;;;;10.15;100.00;95899.59;5039629;28;20306;-72
2022/09/17 05:52:49;;;;;;;3.37;1.60;;;;;;;10.20;100.00;95906.94;5038728;28;21051;-73
2022/09/17 05:55:17;;;;;;;10.90;2.60;;;;;;;10.33;98.86;95910.56;5039291;28;20262;-73
2022/09/17 05:57:44;;;;;;;3.80;1.60;;;;;;;10.25;99.13;95905.41;5038806;28;20228;-73
2022/09/17 06:00:12;;;;;;;3.73;1.60;;;;;;;10.31;99.14;95912.56;5039830;28;20205;-73
2022/09/17 06:02:38;;;;;;;8.53;1.70;;;;;;;10.21;99.23;95916.47;5038328;28;20291;-73
2022/09/17 06:05:05;;;;;;;0.80;0.80;;;;;;;10.28;99.18;95915.56;5039171;28;20674;-73
2022/09/17 06:07:34;;;;;;;4.60;1.70;;;;;;;10.20;99.69;95914.84;5039168;28;20217;-72
2022/09/17 06:10:01;;;;;;;1.50;1.00;;;;;;;10.34;98.35;95928.81;5038982;28;20197;-72
2022/09/17 06:12:28;;;;;;;0.93;0.73;;;;;;;10.49;98.23;95926.97;5038266;28;20209;-71
2022/09/17 06:14:55;;;;;;;3.20;2.33;;;;;;;10.32;98.31;95921.28;5038063;28;20205;-71
2022/09/17 06:17:21;;;;;;;8.40;1.83;;;;;;;10.49;98.68;95926.97;5039155;28;20194;-72
2022/09/17 06:19:48;;;;;;;3.10;0.93;;;;;;;10.41;98.05;95932.34;5038238;28;20220;-72
2022/09/17 06:22:14;;;;;;;6.03;1.93;;;;;;;10.50;98.16;95931.25;5039095;28;20204;-70
2022/09/17 06:24:41;;;;;;;5.97;2.13;;;;;;;10.58;97.05;95938.25;5038501;28;20198;-71
2022/09/17 06:27:07;;;;;;;12.40;1.93;;;;;;;10.55;97.00;95935.97;5038486;28;20225;-71
2022/09/17 06:29:35;;;;;;;4.77;1.83;;;;;;;10.68;96.13;95939.59;5038441;28;20225;-70
2022/09/17 06:32:02;;;;;;;6.83;1.60;;;;;;;10.67;94.47;95945.03;5039634;28;20208;-71
2022/09/17 06:34:28;;;;;;;5.83;1.90;;;;;;;10.81;94.22;95952.09;5037364;28;20201;-71
2022/09/17 06:36:55;;;;;;;1.67;0.93;;;;;;;10.87;94.17;95959.25;5038309;28;20193;-71
2022/09/17 06:39:21;;;;;;;4.37;1.90;;;;;;;10.77;92.73;95962.19;5038580;28;20227;-72
2022/09/17 06:41:48;;;;;;;3.47;2.10;;;;;;;10.72;92.20;95958.50;5034958;28;20216;-71
2022/09/17 06:44:14;;;;;;;11.17;1.87;;;;;;;10.79;92.57;95962.00;5036833;28;20685;-71
2022/09/17 06:46:43;;;;;;;2.90;1.57;;;;;;;10.97;92.51;95966.69;5038697;28;20355;-71
2022/09/17 06:49:09;;;;;;;2.93;1.70;;;;;;;10.85;90.68;95967.34;5037840;28;20255;-71
2022/09/17 06:51:35;;;;;;;6.00;2.03;;;;;;;11.07;92.01;95971.66;5038186;28;20205;-71
2022/09/17 06:54:02;;;;;;;4.87;1.13;;;;;;;11.00;89.92;95976.84;5036566;28;20212;-71
2022/09/17 06:56:28;;;;;;;10.07;1.60;;;;;;;11.15;90.02;95968.91;5037208;28;20194;-71
2022/09/17 06:58:55;;;;;;;11.30;1.30;;;;;;;11.14;90.13;95976.00;5037819;28;20221;-71
2022/09/17 07:01:21;;;;;;;3.57;1.10;;;;;;;10.93;89.23;95979.63;5038314;28;20209;-71
2022/09/17 07:03:49;;;;;;;4.43;1.53;;;;;;;11.06;86.97;95976.13;5037525;28;20373;-71
2022/09/17 07:06:15;;;;;;;8.73;2.63;;;;;;;10.95;88.43;95973.16;5037390;28;20198;-73
2022/09/17 07:08:42;;;;;;;4.73;1.57;;;;;;;10.79;89.09;95972.53;5035993;28;20232;-75
2022/09/17 07:11:09;;;;;;;7.53;2.50;;;;;;;10.90;90.20;95980.00;5036059;28;20249;-74
2022/09/17 07:13:35;;;;;;;5.33;1.67;;;;;;;10.69;88.35;95978.13;5036912;28;20580;-71
2022/09/17 07:16:04;;;;;;;7.87;1.80;;;;;;;10.86;90.44;95991.88;5038093;28;20228;-70
2022/09/17 07:18:31;;;;;;;2.07;1.20;;;;;;;11.03;90.66;95989.66;5037772;28;20241;-70
2022/09/17 07:21:00;;;;;;;7.47;1.60;;;;;;;11.11;89.72;95994.84;5037500;28;20220;-70
2022/09/17 07:23:29;;;;;;;9.90;1.50;;;;;;;11.12;89.98;95985.91;5037329;28;20201;-70
2022/09/17 07:25:57;;;;;;;11.30;1.80;;;;;;;11.04;88.74;95991.31;5037073;28;20202;-70
2022/09/17 07:28:24;;;;;;;3.87;1.30;;;;;;;11.09;89.01;95996.84;5036032;28;20397;-70
2022/09/17 07:30:52;;;;;;;1.60;1.10;;;;;;;11.07;87.92;95996.22;5036297;28;20491;-70
2022/09/17 07:33:22;;;;;;;6.57;1.70;;;;;;;11.08;88.53;96000.47;5037257;28;20582;-70
2022/09/17 07:35:52;;;;;;;5.60;1.20;;;;;;;10.94;88.46;95996.03;5036984;28;20209;-70
2022/09/17 07:38:21;;;;;;;5.47;1.43;;;;;;;10.87;89.23;96001.44;5037495;28;20244;-70
2022/09/17 07:40:54;;;;;;;9.37;2.37;;;;;;;11.12;89.57;95996.44;5037309;28;20212;-70
2022/09/17 07:43:20;;;;;;;11.47;2.50;;;;;;;10.93;90.50;95997.06;5033485;28;20197;-70
2022/09/17 07:45:47;;;;;;;5.23;1.47;;;;;;;11.04;91.42;95999.22;5037037;28;20225;-70
2022/09/17 07:48:13;;;;;;;4.43;1.50;;;;;;;11.10;89.60;96001.13;5035978;28;20228;-70
2022/09/17 07:50:40;;;;;;;6.00;1.37;;;;;;;11.14;88.14;95999.75;5033088;28;20212;-70
2022/09/17 07:53:06;;;;;;;3.23;1.40;;;;;;;10.92;88.77;95999.06;5035612;28;20673;-70
2022/09/17 07:55:34;;;;;;;10.53;2.00;;;;;;;11.20;89.60;96004.28;5034866;28;20205;-70
2022/09/17 07:58:00;;;;;;;8.90;1.67;;;;;;;11.09;89.62;96002.09;5034703;28;20224;-70
2022/09/17 08:00:27;;;;;;;3.90;1.67;;;;;;;11.31;88.93;96003.78;5036730;28;20208;-71
2022/09/17 08:02:54;;;;;;;8.37;1.53;;;;;;;11.48;89.52;95997.28;5034626;28;20209;-70
2022/09/17 08:05:21;;;;;;;5.43;1.60;;;;;;;11.67;89.82;96001.94;5035409;28;20681;-70
2022/09/17 08:07:50;;;;;;;7.10;1.87;;;;;;;11.85;88.86;95999.66;5034678;28;20225;-70
2022/09/17 08:10:20;;;;;;;7.07;1.70;;;;;;;11.74;87.64;95987.78;5036174;28;20243;-70
2022/09/17 08:12:48;;;;;;;6.70;1.70;;;;;;;11.86;88.07;95982.81;5034510;28;20201;-71
2022/09/17 08:15:14;;;;;;;1.90;0.80;;;;;;;11.64;88.39;95986.47;5034331;28;20274;-70
2022/09/17 08:17:43;;;;;;;4.07;1.60;;;;;;;11.66;87.20;95990.56;5034693;28;20225;-70
2022/09/17 08:20:09;;;;;;;3.83;1.30;;;;;;;11.28;87.13;96000.72;5035450;28;20669;-70
2022/09/17 08:22:36;;;;;;;2.77;1.40;;;;;;;11.37;88.14;95995.13;5034769;28;20201;-70
2022/09/17 08:25:03;;;;;;;4.77;1.13;;;;;;;11.26;88.71;96000.88;5033959;28;20213;-70
2022/09/17 08:27:30;;;;;;;2.60;1.20;;;;;;;11.42;89.44;95998.00;5035316;28;20217;-70
2022/09/17 08:29:58;;;;;;;4.87;1.60;;;;;;;11.36;89.48;95995.31;5034422;28;20197;-70
2022/09/17 08:32:25;;;;;;;2.60;1.83;;;;;;;11.28;89.18;96000.72;5035123;28;20209;-70
2022/09/17 08:34:52;;;;;;;1.87;1.00;;;;;;;11.28;88.63;96001.50;5035957;28;20597;-70
2022/09/17 08:37:19;;;;;;;3.63;1.40;;;;;;;11.11;89.25;95989.56;5036163;28;20295;-70
2022/09/17 08:39:45;;;;;;;4.00;1.60;;;;;;;11.46;90.05;95986.06;5034908;28;20205;-70
2022/09/17 08:42:20;;;;;;;1.73;0.87;;;;;;;11.71;88.82;95987.34;5032560;28;20211;-70
2022/09/17 08:44:49;;;;;;;1.97;1.10;;;;;;;11.78;88.37;95983.75;5035488;28;20209;-70
2022/09/17 08:47:24;;;;;;;4.87;1.00;;;;;;;11.86;87.77;95985.44;5034872;28;20728;-70
2022/09/17 08:49:54;;;;;;;2.13;1.13;;;;;;;11.95;88.69;95990.44;5033053;28;20724;-70
2022/09/17 08:52:48;;;;;;;3.60;0.90;;;;;;;11.70;86.46;95993.66;5033250;28;20205;-70
2022/09/17 08:55:28;;;;;;;2.57;1.00;;;;;;;11.65;88.46;95996.03;5032823;28;20207;-70
2022/09/17 08:58:17;;;;;;;3.10;1.13;;;;;;;11.53;89.53;95999.38;5033403;28;20328;-70
2022/09/17 09:00:50;;;;;;;7.47;1.40;;;;;;;11.22;90.67;96002.25;5034843;28;20205;-70
2022/09/17 09:03:32;;;;;;;9.73;1.60;;;;;;;11.24;92.80;96000.25;5034508;28;21036;-70
2022/09/17 09:06:01;;;;;;;7.70;0.87;;;;;;;11.19;92.23;96009.75;5035250;28;20320;-70
2022/09/17 09:08:31;;;;;;;2.30;0.80;;;;;;;11.12;93.50;96009.63;5036064;28;20592;-70
2022/09/17 09:11:00;;;;;;;1.13;0.87;;;;;;;10.95;96.52;96017.97;5035771;28;20201;-70
2022/09/17 09:13:31;;;;;;;1.20;0.73;;;;;;;10.93;96.72;96013.88;5035411;28;20205;-70
2022/09/17 09:16:01;;;;;;;2.57;1.00;;;;;;;10.85;97.37;96019.25;5035942;28;20208;-70
2022/09/17 09:18:30;;;;;;;3.03;1.10;;;;;;;10.85;100.00;96030.63;5034028;28;20217;-70
2022/09/17 09:21:07;;;;;;;4.03;0.70;;;;;;;10.80;100.00;96030.34;5035857;28;20271;-70
2022/09/17 09:23:46;;;;;;;3.73;1.17;;;;;;;11.00;100.00;96026.94;5035251;28;20255;-70
2022/09/17 09:26:17;;;;;;;4.47;1.43;;;;;;;11.12;100.00;96030.75;5035736;28;20394;-70
2022/09/17 09:28:56;;;;;;;3.20;0.93;;;;;;;11.17;100.00;96025.72;5035753;28;20228;-70
2022/09/17 09:31:47;;;;;;;3.90;1.20;;;;;;;11.08;100.00;96032.13;5035747;28;20197;-69
2022/09/17 09:34:15;;;;;;;2.50;0.83;;;;;;;10.86;100.00;96034.06;5025960;28;20197;-70
2022/09/17 09:36:42;;;;;;;2.10;0.90;;;;;;;10.88;100.00;96046.06;5035451;28;20209;-70
2022/09/17 09:39:16;;;;;;;2.10;1.00;;;;;;;10.86;100.00;96048.06;5035248;28;20220;-70
2022/09/17 09:41:45;;;;;;;4.17;1.07;;;;;;;11.01;100.00;96036.50;5035232;28;20205;-70
2022/09/17 09:44:14;;;;;;;2.63;1.23;;;;;;;10.96;100.00;96045.97;5034142;28;20743;-70
2022/09/17 09:46:56;;;;;;;1.63;1.00;;;;;;;11.19;100.00;96049.31;5035273;28;20650;-70
2022/09/17 09:49:35;;;;;;;2.33;1.00;;;;;;;11.19;100.00;96044.03;5035681;28;20625;-70
2022/09/17 09:52:16;;;;;;;4.00;1.20;;;;;;;11.27;100.00;96046.56;5039781;28;20208;-70
2022/09/17 09:54:57;;;;;;;3.10;0.90;;;;;;;11.30;100.00;96056.72;5038283;28;20201;-70
2022/09/17 09:57:35;;;;;;;1.67;1.17;;;;;;;11.20;100.00;96050.91;5039309;28;20204;-70
2022/09/17 10:00:22;;;;;;;0.60;0.60;;;;;;;11.15;100.00;96051.47;5039099;28;20197;-70
2022/09/17 10:02:54;;;;;;;3.83;1.00;;;;;;;11.08;100.00;96050.56;5038360;28;20434;-70
2022/09/17 10:05:22;;;;;;;3.30;0.90;;;;;;;10.93;100.00;96056.06;5037779;28;20229;-70
2022/09/17 10:07:49;;;;;;;3.33;0.90;;;;;;;10.93;100.00;96056.06;5038900;28;20235;-70
2022/09/17 10:10:15;;;;;;;1.97;0.80;;;;;;;10.88;100.00;96061.06;5039480;28;20209;-70
2022/09/17 10:12:41;;;;;;;2.03;0.80;;;;;;;11.09;100.00;96052.22;5037915;28;20209;-70
2022/09/17 10:15:24;;;;;;;1.23;1.00;;;;;;;11.23;100.00;96061.91;5039110;28;20201;-70
2022/09/17 10:18:15;;;;;;;2.30;1.13;;;;;;;11.40;100.00;96063.31;5035751;28;20625;-70
2022/09/17 10:21:00;;;;;;;2.30;0.70;;;;;;;11.51;100.00;96065.53;5038526;28;20216;-70
2022/09/17 10:23:30;;;;;;;2.10;1.00;;;;;;;11.57;100.00;96059.50;5039141;28;20835;-70
2022/09/17 10:25:57;;;;;;;1.33;1.23;;;;;;;11.61;100.00;96063.41;5038255;28;20201;-70
2022/09/17 10:28:41;;;;;;;0.83;0.50;;;;;;;11.48;99.92;96060.59;5038052;28;20221;-69
2022/09/17 10:31:09;;;;;;;2.27;0.67;;;;;;;11.45;100.00;96058.31;5038185;28;20293;-71
2022/09/17 10:33:39;;;;;;;0.80;0.80;;;;;;;11.67;100.00;96060.84;5038145;28;20568;-69
2022/09/17 10:36:09;;;;;;;1.00;0.80;;;;;;;11.65;100.00;96057.53;5038184;28;20767;-70
2022/09/17 10:38:38;;;;;;;2.67;0.87;;;;;;;11.54;100.00;96064.34;5038834;28;20248;-69
2022/09/17 10:41:20;;;;;;;3.20;0.90;;;;;;;11.69;100.00;96052.72;5038137;28;20204;-70
2022/09/17 10:43:47;;;;;;;0.70;0.70;;;;;;;11.17;100.00;96064.47;5037590;28;20676;-70
2022/09/17 10:46:17;;;;;;;3.83;1.20;;;;;;;11.15;100.00;96056.75;5038420;28;20205;-71
2022/09/17 10:48:50;;;;;;;2.97;1.20;;;;;;;11.20;100.00;96054.38;5037941;28;20246;-72
2022/09/17 10:51:24;;;;;;;3.57;0.90;;;;;;;11.71;100.00;96053.34;5038139;28;20227;-74
2022/09/17 10:54:06;;;;;;;2.50;1.03;;;;;;;12.24;100.00;96043.88;5038128;28;20296;-72
2022/09/17 10:56:36;;;;;;;4.23;1.67;;;;;;;12.26;98.34;96036.56;5038084;28;20202;-70
2022/09/17 10:59:22;;;;;;;2.03;1.20;;;;;;;12.21;96.34;96046.91;5038044;28;20217;-71
2022/09/17 11:01:58;;;;;;;1.37;1.20;;;;;;;12.36;95.13;96046.81;5037416;28;20205;-68
2022/09/17 11:04:40;;;;;;;3.93;1.00;;;;;;;12.60;93.13;96047.19;5038128;28;20874;-70
2022/09/17 11:07:29;;;;;;;2.80;1.30;;;;;;;12.85;93.96;96037.75;5037147;28;20208;-71
2022/09/17 11:10:16;;;;;;;5.27;1.33;;;;;;;12.65;91.65;96036.81;5038462;28;20692;-70
2022/09/17 11:12:58;;;;;;;3.77;1.13;;;;;;;12.45;89.40;96041.19;5037015;28;20208;-70
2022/09/17 11:15:38;;;;;;;2.93;1.17;;;;;;;12.05;89.74;96048.97;5038234;28;20215;-70
2022/09/17 11:18:24;;;;;;;4.27;1.40;;;;;;;12.12;88.98;96043.75;5035890;28;20225;-70
2022/09/17 11:21:03;;;;;;;4.20;1.10;;;;;;;12.06;88.58;96036.63;5037966;28;20201;-70
2022/09/17 11:23:58;;;;;;;1.90;1.20;;;;;;;12.21;88.59;96048.72;5037555;28;20266;-70
2022/09/17 11:26:32;;;;;;;0.90;0.87;;;;;;;12.00;87.26;96042.66;5037351;28;20216;-70
2022/09/17 11:29:10;;;;;;;3.40;1.20;;;;;;;12.04;89.82;96046.53;5037253;28;21291;-74
2022/09/17 11:31:46;;;;;;;4.40;1.60;;;;;;;12.02;90.81;96041.44;5037384;28;20197;-72
2022/09/17 11:34:31;;;;;;;7.87;1.10;;;;;;;12.04;89.45;96042.09;5037934;28;20568;-70
2022/09/17 11:37:04;;;;;;;3.40;0.90;;;;;;;12.06;91.06;96034.78;5037741;28;20311;-70
2022/09/17 11:39:40;;;;;;;3.30;1.40;;;;;;;12.14;90.07;96039.13;5036742;28;20221;-71
2022/09/17 11:42:10;;;;;;;3.13;1.00;;;;;;;12.08;92.74;96035.41;5036909;28;20204;-68
2022/09/17 11:44:40;;;;;;;5.20;1.43;;;;;;;11.84;92.45;96035.00;5037232;28;20197;-71
2022/09/17 11:47:13;;;;;;;1.33;1.00;;;;;;;11.75;92.04;96044.06;5037325;28;20216;-70